createdAt,value
2022-08-16T00:01:24.499Z,1.77
2022-08-16T00:03:52.845Z,1.83
2022-08-16T00:06:20.509Z,2.05
2022-08-16T00:08:48.263Z,2.10
2022-08-16T00:11:16.608Z,2.22
2022-08-16T00:13:53.494Z,1.85
2022-08-16T00:17:05.551Z,2.10
2022-08-16T00:21:44.722Z,1.80
2022-08-16T00:24:12.771Z,2.55
2022-08-16T00:26:43.690Z,1.80
2022-08-16T00:29:13.163Z,1.83
2022-08-16T00:31:59.883Z,3.15
2022-08-16T00:34:43.743Z,1.90
2022-08-16T00:37:18.536Z,2.47
2022-08-16T00:39:57.237Z,1.85
2022-08-16T00:42:31.618Z,2.00
2022-08-16T00:45:35.647Z,2.00
2022-08-16T00:48:30.479Z,2.00
2022-08-16T00:50:55.358Z,2.67
2022-08-16T00:53:22.243Z,1.90
2022-08-16T00:55:52.334Z,2.10
2022-08-16T00:58:34.577Z,1.98
2022-08-16T01:01:02.754Z,2.13
2022-08-16T01:03:31.702Z,2.15
2022-08-16T01:06:40.003Z,2.65
2022-08-16T01:08:53.885Z,2.05
2022-08-16T01:11:24.975Z,1.90
2022-08-16T01:13:56.617Z,2.28
2022-08-16T01:16:26.956Z,2.00
2022-08-16T01:19:05.259Z,2.20
2022-08-16T01:21:57.954Z,2.10
2022-08-16T01:24:55.078Z,2.35
2022-08-16T01:27:34.684Z,1.90
2022-08-16T01:30:28.470Z,2.05
2022-08-16T01:33:02.654Z,2.40
2022-08-16T01:35:52.557Z,2.20
2022-08-16T01:38:41.027Z,2.15
2022-08-16T01:41:23.667Z,2.55
2022-08-16T01:43:53.560Z,2.50
2022-08-16T01:46:37.732Z,2.10
2022-08-16T01:49:13.082Z,2.10
2022-08-16T01:51:43.720Z,2.13
2022-08-16T01:54:13.173Z,1.95
2022-08-16T01:56:41.015Z,2.20
2022-08-16T01:59:15.610Z,2.10
2022-08-16T02:01:49.730Z,2.30
2022-08-16T02:04:48.033Z,2.65
2022-08-16T02:07:11.355Z,2.40
2022-08-16T02:09:39.258Z,2.90
2022-08-16T02:12:50.596Z,2.53
2022-08-16T02:14:55.810Z,2.33
2022-08-16T02:17:22.532Z,2.53
2022-08-16T02:19:58.865Z,2.58
2022-08-16T02:58:26.542Z,2.53
2022-08-16T03:00:56.155Z,2.33
2022-08-16T03:03:25.896Z,2.40
2022-08-16T03:05:53.500Z,3.00
2022-08-16T03:08:51.916Z,2.55
2022-08-16T03:11:16.487Z,2.35
2022-08-16T03:13:51.302Z,2.55
2022-08-16T03:16:36.542Z,2.63
2022-08-16T03:19:07.474Z,2.38
2022-08-16T03:21:37.916Z,2.70
2022-08-16T03:24:28.354Z,2.88
2022-08-16T03:27:01.761Z,2.70
2022-08-16T03:29:32.830Z,2.53
2022-08-16T03:32:01.760Z,2.80
2022-08-16T03:34:29.763Z,2.78
2022-08-16T03:36:56.891Z,2.85
2022-08-16T03:39:23.766Z,2.72
2022-08-16T03:41:59.587Z,2.42
2022-08-16T03:44:43.792Z,2.47
2022-08-16T03:47:11.939Z,2.88
2022-08-16T03:49:39.037Z,2.80
2022-08-16T03:52:06.306Z,2.97
2022-08-16T03:54:35.613Z,3.05
2022-08-16T03:57:04.945Z,2.70
2022-08-16T03:59:35.560Z,2.60
2022-08-16T04:02:07.173Z,2.78
2022-08-16T04:04:39.647Z,2.80
2022-08-16T04:07:07.428Z,2.53
2022-08-16T04:09:35.667Z,2.92
2022-08-16T04:12:10.705Z,2.75
2022-08-16T04:14:38.640Z,2.65
2022-08-16T04:17:15.402Z,2.88
2022-08-16T04:19:45.646Z,2.97
2022-08-16T04:22:14.123Z,3.00
2022-08-16T04:24:54.881Z,3.40
2022-08-16T04:27:24.307Z,2.88
2022-08-16T04:29:52.498Z,3.15
2022-08-16T04:32:19.622Z,3.00
2022-08-16T04:34:47.199Z,3.03
2022-08-16T04:37:14.178Z,2.70
2022-08-16T04:39:46.809Z,2.75
2022-08-16T04:42:26.542Z,2.80
2022-08-16T04:44:58.284Z,2.75
2022-08-16T04:47:33.142Z,3.03
2022-08-16T04:50:07.792Z,2.95
2022-08-16T04:52:35.998Z,3.35
2022-08-16T04:55:13.324Z,3.10
2022-08-16T04:57:43.294Z,2.92
2022-08-16T05:00:30.446Z,3.17
2022-08-16T05:03:07.221Z,3.22
2022-08-16T05:05:44.871Z,3.17
2022-08-16T05:08:29.329Z,3.28
2022-08-16T05:11:05.389Z,3.65
2022-08-16T05:13:40.361Z,3.58
2022-08-16T05:16:16.577Z,3.33
2022-08-16T05:18:48.179Z,3.58
2022-08-16T05:21:14.915Z,3.70
2022-08-16T05:23:45.400Z,3.67
2022-08-16T05:26:20.306Z,4.10
2022-08-16T05:28:55.591Z,3.97
2022-08-16T05:31:29.639Z,3.10
2022-08-16T05:33:58.260Z,3.53
2022-08-16T05:36:33.802Z,3.33
2022-08-16T05:39:03.272Z,3.80
2022-08-16T05:41:30.669Z,3.80
2022-08-16T05:44:05.149Z,4.03
2022-08-16T05:46:32.698Z,3.80
2022-08-16T05:49:05.892Z,4.93
2022-08-16T05:51:38.438Z,4.18
2022-08-16T05:54:07.941Z,3.50
2022-08-16T05:56:38.048Z,3.53
2022-08-16T05:59:06.344Z,3.55
2022-08-16T06:01:38.254Z,3.92
2022-08-16T06:04:13.682Z,3.47
2022-08-16T06:06:57.569Z,3.20
2022-08-16T06:09:42.713Z,3.65
2022-08-16T06:12:12.146Z,3.35
2022-08-16T06:14:40.100Z,3.70
2022-08-16T06:17:07.407Z,3.70
2022-08-16T06:19:35.807Z,3.70
2022-08-16T06:22:03.001Z,4.45
2022-08-16T06:24:53.389Z,4.18
2022-08-16T06:27:19.635Z,3.60
2022-08-16T06:29:50.060Z,3.75
2022-08-16T06:32:27.299Z,3.67
2022-08-16T06:34:57.499Z,4.00
2022-08-16T06:37:36.999Z,3.45
2022-08-16T06:40:05.173Z,3.53
2022-08-16T06:42:47.467Z,3.80
2022-08-16T06:45:15.382Z,3.70
2022-08-16T06:47:53.144Z,3.58
2022-08-16T06:50:28.713Z,3.42
2022-08-16T06:53:00.449Z,3.20
2022-08-16T06:55:38.366Z,4.30
2022-08-16T06:58:08.643Z,4.20
2022-08-16T07:00:49.416Z,3.88
2022-08-16T07:03:27.963Z,3.63
2022-08-16T07:08:27.323Z,2.92
2022-08-16T07:10:55.565Z,3.22
2022-08-16T07:13:58.591Z,3.35
2022-08-16T07:16:15.371Z,4.00
2022-08-16T07:18:58.794Z,3.55
2022-08-16T07:21:28.577Z,3.63
2022-08-16T07:24:29.481Z,3.10
2022-08-16T07:26:58.782Z,3.42
2022-08-16T07:29:26.231Z,3.03
2022-08-16T07:31:58.649Z,3.33
2022-08-16T07:34:35.511Z,3.15
2022-08-16T07:37:07.526Z,3.60
2022-08-16T07:39:34.492Z,4.35
2022-08-16T07:42:25.998Z,3.20
2022-08-16T07:44:57.052Z,3.70
2022-08-16T07:47:31.456Z,3.40
2022-08-16T07:49:59.719Z,3.33
2022-08-16T07:52:29.987Z,3.45
2022-08-16T07:54:57.988Z,3.42
2022-08-16T07:57:25.416Z,3.63
2022-08-16T07:59:53.209Z,3.33
2022-08-16T08:02:21.038Z,4.25
2022-08-16T08:04:48.455Z,3.83
2022-08-16T08:07:16.427Z,3.60
2022-08-16T08:09:44.016Z,3.72
2022-08-16T08:12:43.705Z,3.72
2022-08-16T08:15:00.155Z,4.10
2022-08-16T08:17:42.812Z,4.20
2022-08-16T08:20:26.306Z,3.80
2022-08-16T08:23:00.545Z,4.85
2022-08-16T08:25:53.932Z,4.53
2022-08-16T08:28:18.278Z,5.05
2022-08-16T08:30:51.638Z,4.82
2022-08-16T08:33:28.971Z,4.20
2022-08-16T08:36:01.132Z,5.22
2022-08-16T08:38:44.251Z,4.30
2022-08-16T08:41:13.320Z,4.68
2022-08-16T08:43:41.874Z,4.50
2022-08-16T08:46:18.412Z,4.68
2022-08-16T08:48:59.538Z,3.90
2022-08-16T08:51:31.717Z,4.03
2022-08-16T08:53:59.250Z,3.63
2022-08-16T08:56:26.128Z,4.03
2022-08-16T08:58:58.295Z,4.50
2022-08-16T09:01:36.374Z,4.20
2022-08-16T09:04:10.487Z,4.57
2022-08-16T09:06:43.776Z,3.90
2022-08-16T09:09:16.653Z,4.50
2022-08-16T09:11:47.298Z,4.03
2022-08-16T09:14:23.868Z,4.40
2022-08-16T09:17:03.650Z,3.88
2022-08-16T09:19:40.691Z,4.00
2022-08-16T09:22:20.920Z,4.03
2022-08-16T09:24:52.356Z,4.70
2022-08-16T09:27:21.402Z,3.70
2022-08-16T09:29:59.754Z,3.85
2022-08-16T09:32:30.692Z,4.30
2022-08-16T09:34:59.458Z,4.05
2022-08-16T09:37:29.376Z,4.28
2022-08-16T09:39:59.632Z,4.50
2022-08-16T09:42:28.923Z,3.75
2022-08-16T09:45:11.913Z,3.85
2022-08-16T09:47:56.632Z,4.97
2022-08-16T09:50:26.820Z,4.63
2022-08-16T09:53:06.758Z,3.85
2022-08-16T09:55:33.809Z,3.65
2022-08-16T09:58:13.902Z,3.72
2022-08-16T10:01:00.951Z,3.60
2022-08-16T10:03:30.356Z,4.00
2022-08-16T10:05:57.571Z,4.00
2022-08-16T10:08:26.930Z,4.03
2022-08-16T10:11:12.710Z,4.03
2022-08-16T10:13:41.605Z,3.83
2022-08-16T10:18:56.730Z,4.30
2022-08-16T10:21:24.305Z,4.07
2022-08-16T10:27:19.135Z,3.92
2022-08-16T10:29:12.062Z,3.85
2022-08-16T10:31:53.635Z,3.78
2022-08-16T10:34:31.843Z,3.92
2022-08-16T10:37:01.983Z,4.18
2022-08-16T10:39:40.423Z,3.63
2022-08-16T10:42:07.850Z,3.65
2022-08-16T10:44:35.063Z,3.58
2022-08-16T10:47:02.272Z,3.40
2022-08-16T10:49:29.285Z,3.72
2022-08-16T10:52:02.272Z,3.92
2022-08-16T10:54:31.004Z,3.72
2022-08-16T10:57:04.141Z,3.70
2022-08-16T10:59:45.125Z,3.42
2022-08-16T11:02:57.478Z,3.90
2022-08-16T11:05:12.508Z,3.45
2022-08-16T11:07:52.394Z,3.15
2022-08-16T11:13:57.454Z,3.60
2022-08-16T11:19:06.303Z,3.60
2022-08-16T11:24:41.772Z,3.33
2022-08-16T11:27:23.679Z,3.30
2022-08-16T11:29:56.548Z,3.67
2022-08-16T11:35:10.600Z,3.30
2022-08-16T11:38:47.554Z,3.55
2022-08-16T11:40:47.046Z,3.38
2022-08-16T11:43:23.392Z,3.35
2022-08-16T11:48:22.418Z,3.78
2022-08-16T11:50:49.227Z,3.53
2022-08-16T11:53:17.020Z,3.47
2022-08-16T11:55:44.368Z,3.65
2022-08-16T11:58:11.708Z,3.28
2022-08-16T12:00:51.388Z,3.60
2022-08-16T12:03:23.864Z,3.33
2022-08-16T12:06:00.251Z,3.80
2022-08-16T12:08:27.269Z,3.80
2022-08-16T12:10:55.147Z,4.18
2022-08-16T12:13:27.303Z,3.50
2022-08-16T12:15:54.982Z,3.28
2022-08-16T12:18:23.216Z,3.15
2022-08-16T12:20:50.737Z,3.30
2022-08-16T12:25:49.408Z,3.25
2022-08-16T12:28:25.407Z,3.30
2022-08-16T12:31:05.626Z,3.42
2022-08-16T12:33:32.730Z,3.20
2022-08-16T12:36:13.111Z,3.42
2022-08-16T12:38:48.187Z,3.53
2022-08-16T12:41:19.101Z,3.00
2022-08-16T12:43:52.221Z,3.80
2022-08-16T12:46:19.007Z,3.40
2022-08-16T12:48:58.089Z,2.97
2022-08-16T12:51:58.400Z,3.10
2022-08-16T12:54:21.348Z,3.10
2022-08-16T12:56:48.222Z,2.92
2022-08-16T12:59:20.164Z,2.72
2022-08-16T13:01:47.983Z,3.33
2022-08-16T13:04:21.012Z,2.70
2022-08-16T13:06:52.482Z,3.03
2022-08-16T13:09:23.090Z,3.40
2022-08-16T13:12:03.385Z,2.90
2022-08-16T13:14:41.311Z,2.90
2022-08-16T13:17:18.412Z,3.20
2022-08-16T13:22:35.296Z,3.15
2022-08-16T13:25:02.300Z,3.47
2022-08-16T13:28:01.451Z,3.10
2022-08-16T13:30:36.155Z,2.92
2022-08-16T13:33:11.520Z,3.03
2022-08-16T13:35:55.978Z,3.33
2022-08-16T13:38:24.918Z,3.47
2022-08-16T13:40:56.186Z,3.25
2022-08-16T13:43:25.233Z,2.90
2022-08-16T13:45:55.557Z,2.88
2022-08-16T13:48:25.155Z,3.20
2022-08-16T13:50:58.725Z,3.67
2022-08-16T13:53:30.738Z,2.90
2022-08-16T13:55:59.503Z,2.88
2022-08-16T13:58:37.561Z,3.10
2022-08-16T14:01:15.789Z,3.28
2022-08-16T14:03:44.822Z,3.90
2022-08-16T14:06:12.453Z,3.00
2022-08-16T14:08:42.999Z,3.38
2022-08-16T14:11:12.743Z,3.60
2022-08-16T14:13:42.853Z,2.88
2022-08-16T14:16:23.573Z,2.85
2022-08-16T14:21:23.576Z,2.65
2022-08-16T14:23:51.988Z,2.58
2022-08-16T14:26:20.964Z,2.95
2022-08-16T14:28:50.272Z,2.30
2022-08-16T14:31:18.036Z,2.72
2022-08-16T14:33:45.431Z,2.63
2022-08-16T14:36:12.433Z,3.15
2022-08-16T14:38:45.631Z,2.80
2022-08-16T14:41:13.801Z,2.72
2022-08-16T14:43:40.729Z,3.08
2022-08-16T14:46:07.798Z,2.97
2022-08-16T14:48:34.627Z,3.08
2022-08-16T14:51:01.638Z,3.30
2022-08-16T14:53:31.324Z,2.97
2022-08-16T14:55:59.891Z,3.10
2022-08-16T14:58:35.016Z,3.05
2022-08-16T15:01:05.508Z,2.78
2022-08-16T15:03:33.311Z,3.33
2022-08-16T15:06:05.004Z,2.97
2022-08-16T15:08:36.557Z,3.28
2022-08-16T15:11:05.628Z,2.92
2022-08-16T15:13:32.729Z,3.00
2022-08-16T15:16:02.806Z,3.20
2022-08-16T15:18:31.938Z,3.13
2022-08-16T15:20:59.754Z,3.13
2022-08-16T15:23:28.275Z,3.17
2022-08-16T15:25:59.741Z,3.30
2022-08-16T15:28:37.306Z,3.30
2022-08-16T15:31:08.197Z,2.95
2022-08-16T15:33:43.411Z,2.83
2022-08-16T15:36:17.921Z,3.20
2022-08-16T15:39:04.965Z,3.03
2022-08-16T15:41:38.559Z,2.97
2022-08-16T15:44:14.939Z,2.80
2022-08-16T15:46:55.093Z,3.30
2022-08-16T15:49:25.266Z,2.70
2022-08-16T15:52:34.060Z,2.90
2022-08-16T15:55:23.626Z,2.70
2022-08-16T15:57:55.478Z,2.90
2022-08-16T16:00:26.638Z,2.67
2022-08-16T16:03:20.941Z,3.40
2022-08-16T16:05:53.009Z,3.10
2022-08-16T16:08:24.117Z,3.20
2022-08-16T16:13:21.858Z,3.05
2022-08-16T16:15:52.543Z,2.88
2022-08-16T16:18:21.494Z,3.08
2022-08-16T16:20:53.972Z,2.90
2022-08-16T16:23:30.859Z,3.15
2022-08-16T16:25:59.068Z,3.28
2022-08-16T16:29:05.821Z,3.30
2022-08-16T16:31:17.625Z,2.95
2022-08-16T16:33:47.701Z,3.33
2022-08-16T16:36:19.426Z,3.20
2022-08-16T16:38:48.463Z,3.22
2022-08-16T16:41:20.452Z,3.10
2022-08-16T16:43:53.355Z,3.22
2022-08-16T16:49:09.505Z,2.95
2022-08-16T16:51:40.600Z,2.83
2022-08-16T16:54:09.269Z,3.17
2022-08-16T16:56:39.543Z,3.30
2022-08-16T16:59:17.080Z,3.05
2022-08-16T17:01:59.365Z,3.22
2022-08-16T17:04:36.596Z,3.00
2022-08-16T17:07:04.147Z,2.72
2022-08-16T17:09:39.456Z,3.17
2022-08-16T17:12:08.286Z,3.70
2022-08-16T17:14:35.876Z,3.40
2022-08-16T17:17:08.514Z,3.33
2022-08-16T17:19:40.799Z,3.17
2022-08-16T17:22:14.516Z,2.90
2022-08-16T17:24:45.169Z,3.15
2022-08-16T17:27:17.987Z,3.10
2022-08-16T17:29:51.591Z,3.10
2022-08-16T17:32:33.562Z,2.80
2022-08-16T17:35:18.308Z,3.00
2022-08-16T17:37:51.875Z,3.03
2022-08-16T17:40:40.975Z,3.25
2022-08-16T17:43:13.512Z,3.28
2022-08-16T17:45:42.298Z,3.13
2022-08-16T17:48:09.381Z,2.92
2022-08-16T17:50:36.807Z,3.30
2022-08-16T17:53:04.910Z,2.78
2022-08-16T17:55:35.336Z,3.08
2022-08-16T17:58:20.947Z,3.33
2022-08-16T18:00:49.540Z,3.20
2022-08-16T18:03:24.201Z,3.47
2022-08-16T18:06:11.124Z,3.95
2022-08-16T18:08:38.619Z,3.42
2022-08-16T18:11:07.920Z,3.80
2022-08-16T18:13:34.711Z,3.30
2022-08-16T18:16:01.742Z,3.30
2022-08-16T18:18:28.608Z,3.33
2022-08-16T18:21:13.820Z,3.40
2022-08-16T18:23:40.608Z,3.42
2022-08-16T18:26:07.924Z,3.72
2022-08-16T18:28:37.805Z,3.58
2022-08-16T18:31:06.744Z,3.75
2022-08-16T18:33:38.261Z,3.30
2022-08-16T18:36:20.657Z,3.22
2022-08-16T18:38:49.449Z,3.15
2022-08-16T18:41:17.069Z,3.70
2022-08-16T18:44:14.196Z,3.90
2022-08-16T18:46:30.526Z,4.47
2022-08-16T18:48:57.252Z,3.50
2022-08-16T18:51:25.432Z,3.35
2022-08-16T18:53:53.301Z,3.80
2022-08-16T18:56:20.056Z,3.72
2022-08-16T18:58:46.807Z,3.55
2022-08-16T19:01:13.675Z,4.03
2022-08-16T19:03:40.509Z,3.80
2022-08-16T19:06:11.961Z,4.00
2022-08-16T19:08:41.856Z,3.75
2022-08-16T19:11:19.837Z,3.63
2022-08-16T19:13:46.553Z,4.03
2022-08-16T19:16:14.244Z,3.88
2022-08-16T19:18:41.047Z,3.45
2022-08-16T19:21:09.413Z,3.88
2022-08-16T19:23:38.029Z,3.70
2022-08-16T19:26:16.934Z,3.88
2022-08-16T19:28:59.602Z,3.70
2022-08-16T19:31:33.050Z,3.80
2022-08-16T19:34:00.684Z,3.55
2022-08-16T19:36:36.871Z,3.83
2022-08-16T19:39:10.312Z,4.00
2022-08-16T19:41:39.422Z,3.83
2022-08-16T19:44:07.049Z,3.75
2022-08-16T19:46:34.288Z,3.60
2022-08-16T19:49:01.135Z,4.43
2022-08-16T19:51:28.444Z,3.47
2022-08-16T19:53:55.142Z,3.80
2022-08-16T19:56:25.506Z,4.10
2022-08-16T19:59:17.491Z,4.10
2022-08-16T20:01:42.306Z,3.50
2022-08-16T20:04:11.831Z,4.03
2022-08-16T20:06:38.980Z,3.70
2022-08-16T20:09:06.681Z,4.03
2022-08-16T20:11:34.598Z,4.47
2022-08-16T20:14:01.512Z,4.15
2022-08-16T20:16:28.311Z,3.53
2022-08-16T20:18:55.152Z,3.40
2022-08-16T20:21:21.855Z,3.80
2022-08-16T20:23:48.703Z,3.30
2022-08-16T20:26:15.449Z,3.92
2022-08-16T20:28:53.391Z,4.00
2022-08-16T20:31:25.020Z,4.20
2022-08-16T20:33:52.792Z,4.03
2022-08-16T20:36:19.508Z,4.03
2022-08-16T20:38:47.752Z,4.03
2022-08-16T20:41:15.869Z,4.25
2022-08-16T20:43:43.132Z,3.85
2022-08-16T20:46:10.362Z,3.85
2022-08-16T20:48:37.052Z,4.07
2022-08-16T20:51:04.021Z,4.05
2022-08-16T20:53:30.884Z,3.60
2022-08-16T20:55:59.056Z,3.88
2022-08-16T20:58:25.723Z,4.30
2022-08-16T21:00:53.057Z,4.10
2022-08-16T21:03:19.942Z,3.90
2022-08-16T21:05:46.743Z,4.07
2022-08-16T21:08:50.695Z,4.25
2022-08-16T21:11:03.496Z,4.40
2022-08-16T21:13:31.330Z,4.43
2022-08-16T21:15:59.388Z,4.57
2022-08-16T21:18:26.805Z,4.22
2022-08-16T21:20:54.143Z,4.50
2022-08-16T21:23:21.574Z,3.90
2022-08-16T21:25:58.495Z,4.13
2022-08-16T21:28:41.960Z,4.15
2022-08-16T21:31:17.463Z,4.07
2022-08-16T21:33:54.879Z,4.35
2022-08-16T21:36:35.113Z,4.50
2022-08-16T21:39:05.574Z,4.60
2022-08-16T21:41:32.921Z,4.30
2022-08-16T21:43:59.590Z,4.35
2022-08-16T21:46:26.348Z,4.40
2022-08-16T21:48:53.006Z,4.53
2022-08-16T21:51:20.948Z,4.30
2022-08-16T21:53:48.179Z,5.00
2022-08-16T21:56:17.130Z,4.45
2022-08-16T21:58:45.454Z,4.63
2022-08-16T22:01:13.533Z,4.50
2022-08-16T22:03:40.454Z,3.90
2022-08-16T22:06:14.060Z,4.82
2022-08-16T22:08:49.515Z,4.47
2022-08-16T22:11:20.128Z,4.30
2022-08-16T22:13:57.298Z,4.68
2022-08-16T22:16:31.602Z,4.22
2022-08-16T22:18:59.022Z,4.47
2022-08-16T22:21:26.189Z,4.60
2022-08-16T22:23:56.547Z,4.60
2022-08-16T22:26:32.683Z,4.55
2022-08-16T22:29:07.431Z,4.45
2022-08-16T22:31:35.557Z,4.25
2022-08-16T22:34:03.486Z,4.40
2022-08-16T22:36:32.729Z,4.10
2022-08-16T22:39:01.295Z,4.50
2022-08-16T22:41:31.450Z,4.95
2022-08-16T22:43:59.283Z,5.28
2022-08-16T22:46:26.099Z,4.78
2022-08-16T22:48:52.897Z,4.80
2022-08-16T22:51:21.454Z,5.40
2022-08-16T22:53:48.382Z,4.88
2022-08-16T22:56:15.849Z,4.82
2022-08-16T22:58:42.872Z,5.47
2022-08-16T23:01:10.522Z,4.43
2022-08-16T23:03:38.163Z,5.25
2022-08-16T23:06:06.298Z,4.60
2022-08-16T23:08:39.457Z,5.00
2022-08-16T23:11:08.874Z,4.80
2022-08-16T23:13:36.015Z,4.45
2022-08-16T23:16:10.745Z,4.82
2022-08-16T23:18:39.412Z,5.28
2022-08-16T23:21:09.436Z,4.63
2022-08-16T23:23:37.305Z,5.22
2022-08-16T23:26:46.735Z,5.07
2022-08-16T23:28:51.535Z,4.82
2022-08-16T23:31:18.271Z,5.15
2022-08-16T23:33:45.825Z,5.50
2022-08-16T23:36:12.844Z,4.68
2022-08-16T23:38:39.797Z,5.15
2022-08-16T23:41:11.483Z,5.10
2022-08-16T23:43:42.971Z,4.50
2022-08-16T23:46:16.798Z,5.00
2022-08-16T23:49:58.509Z,4.68
2022-08-16T23:51:31.210Z,4.90
2022-08-16T23:53:58.031Z,4.75
2022-08-16T23:56:25.567Z,4.90
2022-08-16T23:59:02.483Z,4.60
